createdAt,value
2018-04-09T00:03:35.390Z,22.80
2018-04-09T00:08:38.932Z,22.80
2018-04-09T00:13:41.508Z,22.80
2018-04-09T00:18:44.044Z,22.70
2018-04-09T00:23:46.800Z,22.80
2018-04-09T00:28:50.253Z,22.80
2018-04-09T00:33:53.317Z,22.80
2018-04-09T00:38:57.274Z,22.70
2018-04-09T00:43:59.794Z,22.70
2018-04-09T00:49:02.289Z,22.80
2018-04-09T00:54:04.849Z,22.70
2018-04-09T00:59:07.358Z,22.70
2018-04-09T01:04:10.085Z,22.80
2018-04-09T01:09:12.607Z,22.70
2018-04-09T01:14:15.977Z,22.70
2018-04-09T01:19:18.591Z,22.70
2018-04-09T01:24:21.245Z,22.70
2018-04-09T01:29:23.811Z,22.70
2018-04-09T01:34:26.395Z,22.70
2018-04-09T01:39:29.067Z,22.70
2018-04-09T01:44:31.591Z,22.70
2018-04-09T01:49:34.151Z,22.70
2018-04-09T01:54:36.682Z,22.70
2018-04-09T01:59:39.584Z,22.70
2018-04-09T02:04:42.890Z,22.70
2018-04-09T02:09:45.517Z,22.70
2018-04-09T02:14:48.173Z,22.70
2018-04-09T02:19:51.036Z,22.70
2018-04-09T02:24:53.911Z,22.70
2018-04-09T02:29:56.466Z,22.70
2018-04-09T02:34:59.641Z,22.70
2018-04-09T02:40:02.200Z,22.70
2018-04-09T02:45:05.126Z,22.70
2018-04-09T02:50:08.101Z,22.70
2018-04-09T02:55:11.382Z,22.70
2018-04-09T03:00:13.910Z,22.70
2018-04-09T03:05:16.464Z,22.70
2018-04-09T03:10:19.398Z,22.70
2018-04-09T03:15:22.709Z,22.70
2018-04-09T03:20:25.692Z,22.70
2018-04-09T03:25:28.238Z,22.70
2018-04-09T03:30:30.766Z,22.70
2018-04-09T03:35:33.337Z,22.70
2018-04-09T03:40:35.881Z,22.70
2018-04-09T03:45:38.694Z,22.70
2018-04-09T03:50:42.013Z,22.60
2018-04-09T03:55:44.623Z,22.60
2018-04-09T04:00:47.510Z,22.60
2018-04-09T04:05:50.181Z,22.60
2018-04-09T04:10:52.715Z,22.60
2018-04-09T04:16:07.201Z,22.60
2018-04-09T04:21:22.431Z,22.60
2018-04-09T04:26:25.882Z,22.70
2018-04-09T04:31:28.477Z,22.70
2018-04-09T04:36:31.013Z,22.70
2018-04-09T04:41:33.559Z,22.70
2018-04-09T04:46:36.420Z,22.70
2018-04-09T04:51:38.962Z,22.70
2018-04-09T04:56:42.559Z,22.70
2018-04-09T05:01:45.232Z,22.70
2018-04-09T05:06:47.808Z,22.80
2018-04-09T05:11:50.340Z,22.80
2018-04-09T05:16:52.869Z,22.90
2018-04-09T05:21:55.424Z,23.00
2018-04-09T05:26:57.965Z,23.00
2018-04-09T05:32:00.641Z,23.20
2018-04-09T05:37:03.232Z,23.30
2018-04-09T05:42:05.766Z,23.40
2018-04-09T05:47:08.319Z,23.50
2018-04-09T05:52:11.138Z,23.70
2018-04-09T05:57:14.504Z,23.70
2018-04-09T06:02:17.159Z,23.70
2018-04-09T06:07:19.758Z,24.80
2018-04-09T06:12:23.050Z,25.60
2018-04-09T06:17:26.326Z,25.80
2018-04-09T06:22:28.957Z,25.80
2018-04-09T06:27:32.379Z,25.90
2018-04-09T06:32:35.100Z,25.80
2018-04-09T06:37:37.626Z,24.50
2018-04-09T06:42:40.186Z,24.00
2018-04-09T06:47:42.862Z,23.90
2018-04-09T06:52:46.192Z,23.90
2018-04-09T06:57:48.771Z,23.90
2018-04-09T07:02:51.681Z,23.90
2018-04-09T07:07:54.346Z,24.00
2018-04-09T07:12:57.053Z,24.00
2018-04-09T07:18:00.646Z,24.00
2018-04-09T07:23:04.016Z,24.00
2018-04-09T07:28:06.609Z,24.00
2018-04-09T07:33:09.313Z,24.00
2018-04-09T07:38:11.824Z,24.10
2018-04-09T07:43:14.430Z,24.10
2018-04-09T07:48:16.983Z,24.00
2018-04-09T07:53:19.881Z,24.10
2018-04-09T07:58:23.472Z,24.10
2018-04-09T08:03:26.741Z,24.10
2018-04-09T08:08:29.257Z,24.10
2018-04-09T08:13:31.787Z,24.20
2018-04-09T08:18:34.297Z,24.20
2018-04-09T08:23:36.809Z,24.20
2018-04-09T08:28:39.927Z,24.20
2018-04-09T08:33:42.426Z,24.20
2018-04-09T08:38:45.226Z,24.20
2018-04-09T08:43:48.536Z,24.20
2018-04-09T08:48:51.092Z,24.20
2018-04-09T08:53:55.410Z,24.10
2018-04-09T08:58:57.932Z,24.10
2018-04-09T09:04:00.570Z,24.20
2018-04-09T09:09:03.073Z,24.20
2018-04-09T09:14:05.732Z,24.20
2018-04-09T09:19:09.115Z,24.30
2018-04-09T09:24:12.962Z,24.30
2018-04-09T09:29:15.589Z,24.30
2018-04-09T09:34:18.242Z,24.20
2018-04-09T09:39:20.758Z,24.20
2018-04-09T09:44:23.291Z,24.20
2018-04-09T09:49:26.364Z,24.20
2018-04-09T09:54:28.926Z,24.30
2018-04-09T09:59:31.480Z,24.20
2018-04-09T10:04:34.174Z,24.20
2018-04-09T10:09:37.106Z,24.10
2018-04-09T10:14:39.964Z,24.10
2018-04-09T10:19:42.482Z,24.10
2018-04-09T10:24:45.176Z,24.10
2018-04-09T10:29:47.762Z,24.10
2018-04-09T10:34:50.531Z,24.00
2018-04-09T10:39:53.210Z,24.00
2018-04-09T10:44:55.766Z,24.00
2018-04-09T10:49:58.402Z,24.00
2018-04-09T10:55:01.679Z,24.00
2018-04-09T11:00:04.376Z,24.00
2018-04-09T11:05:07.712Z,24.00
2018-04-09T11:10:10.556Z,24.00
2018-04-09T11:15:13.155Z,24.00
2018-04-09T11:20:15.679Z,24.00
2018-04-09T11:25:18.449Z,24.00
2018-04-09T11:30:21.026Z,24.00
2018-04-09T11:35:24.464Z,24.00
2018-04-09T11:40:27.031Z,24.00
2018-04-09T11:45:30.335Z,23.90
2018-04-09T11:50:34.932Z,23.90
2018-04-09T11:55:37.449Z,24.00
2018-04-09T12:00:40.010Z,24.00
2018-04-09T12:05:42.897Z,24.00
2018-04-09T12:10:45.457Z,24.00
2018-04-09T12:15:49.037Z,24.00
2018-04-09T12:20:51.755Z,23.90
2018-04-09T12:25:54.344Z,24.00
2018-04-09T12:30:57.139Z,23.90
2018-04-09T12:35:59.709Z,23.90
2018-04-09T12:41:02.268Z,23.90
2018-04-09T12:46:05.025Z,23.90
2018-04-09T12:51:08.130Z,23.90
2018-04-09T12:56:10.807Z,23.90
2018-04-09T13:01:13.366Z,23.80
2018-04-09T13:06:16.696Z,23.80
2018-04-09T13:11:19.407Z,23.80
2018-04-09T13:16:22.084Z,23.80
2018-04-09T13:21:24.657Z,23.80
2018-04-09T13:26:27.955Z,23.80
2018-04-09T13:31:30.611Z,23.80
2018-04-09T13:36:33.116Z,23.80
2018-04-09T13:41:35.899Z,23.80
2018-04-09T13:46:39.433Z,23.80
2018-04-09T13:51:42.050Z,23.80
2018-04-09T13:56:44.569Z,23.80
2018-04-09T14:01:47.335Z,23.80
2018-04-09T14:06:49.904Z,23.80
2018-04-09T14:11:52.527Z,23.70
2018-04-09T14:16:55.266Z,23.80
2018-04-09T14:21:58.170Z,23.80
2018-04-09T14:27:00.793Z,23.80
2018-04-09T14:32:04.069Z,23.80
2018-04-09T14:37:07.678Z,23.80
2018-04-09T14:42:10.212Z,23.80
2018-04-09T14:47:12.745Z,23.70
2018-04-09T14:52:15.335Z,23.70
2018-04-09T14:57:17.901Z,23.70
2018-04-09T15:02:20.482Z,23.80
2018-04-09T15:07:23.221Z,23.80
2018-04-09T15:12:26.779Z,23.80
2018-04-09T15:17:29.351Z,23.80
2018-04-09T15:22:31.906Z,23.80
2018-04-09T15:27:35.307Z,23.80
2018-04-09T15:32:37.820Z,23.80
2018-04-09T15:37:40.376Z,23.80
2018-04-09T15:42:43.028Z,23.80
2018-04-09T15:47:46.491Z,23.70
2018-04-09T15:52:49.088Z,23.80
2018-04-09T15:57:52.578Z,23.70
2018-04-09T16:02:55.269Z,23.80
2018-04-09T16:07:57.898Z,23.80
2018-04-09T16:13:00.389Z,23.70
2018-04-09T16:18:05.841Z,23.70
2018-04-09T16:23:10.141Z,23.70
2018-04-09T16:28:12.729Z,23.70
2018-04-09T16:33:15.422Z,23.80
2018-04-09T16:38:18.764Z,23.70
2018-04-09T16:43:21.455Z,23.70
2018-04-09T16:48:25.599Z,23.70
2018-04-09T16:53:28.448Z,23.70
2018-04-09T16:58:30.987Z,23.70
2018-04-09T17:03:35.320Z,23.70
2018-04-09T17:08:37.987Z,23.70
2018-04-09T17:13:42.152Z,23.70
2018-04-09T17:18:45.395Z,23.70
2018-04-09T17:23:47.967Z,23.70
2018-04-09T17:28:50.487Z,23.70
2018-04-09T17:33:55.433Z,23.70
2018-04-09T17:38:58.018Z,23.60
2018-04-09T17:44:01.503Z,23.70
2018-04-09T17:49:05.577Z,23.60
2018-04-09T17:54:08.219Z,23.60
2018-04-09T17:59:10.775Z,23.60
2018-04-09T18:04:13.552Z,23.60
2018-04-09T18:09:16.696Z,23.60
2018-04-09T18:14:19.213Z,23.60
2018-04-09T18:19:21.948Z,23.60
2018-04-09T18:24:24.509Z,23.50
2018-04-09T18:29:27.312Z,23.60
2018-04-09T18:34:30.767Z,23.60
2018-04-09T18:39:34.041Z,23.50
2018-04-09T18:44:36.562Z,23.50
2018-04-09T18:49:39.101Z,23.50
2018-04-09T18:54:42.694Z,23.50
2018-04-09T18:59:45.303Z,23.50
2018-04-09T19:04:47.942Z,23.50
2018-04-09T19:09:50.688Z,23.50
2018-04-09T19:14:53.409Z,23.60
2018-04-09T19:19:56.159Z,23.50
2018-04-09T19:25:02.145Z,23.50
2018-04-09T19:30:05.460Z,23.60
2018-04-09T19:35:09.596Z,23.50
2018-04-09T19:40:18.716Z,23.50
2018-04-09T19:45:22.438Z,23.50
2018-04-09T19:50:25.101Z,23.50
2018-04-09T19:55:27.774Z,23.50
2018-04-09T20:00:30.313Z,23.50
2018-04-09T20:05:33.253Z,23.50
2018-04-09T20:10:35.996Z,23.40
2018-04-09T20:15:38.863Z,23.50
2018-04-09T20:20:42.190Z,23.50
2018-04-09T20:25:44.788Z,23.50
2018-04-09T20:30:47.526Z,23.50
2018-04-09T20:35:50.185Z,23.50
2018-04-09T20:40:52.738Z,23.50
2018-04-09T20:45:56.089Z,23.50
2018-04-09T20:50:58.749Z,23.40
2018-04-09T20:56:01.354Z,23.50
2018-04-09T21:01:04.081Z,23.50
2018-04-09T21:06:06.609Z,23.50
2018-04-09T21:11:10.137Z,23.50
2018-04-09T21:16:12.944Z,23.50
2018-04-09T21:21:15.553Z,23.40
2018-04-09T21:26:18.497Z,23.50
2018-04-09T21:31:21.057Z,23.40
2018-04-09T21:36:23.718Z,23.50
2018-04-09T21:41:26.340Z,23.50
2018-04-09T21:46:29.990Z,23.50
2018-04-09T21:51:32.543Z,23.40
2018-04-09T21:56:35.092Z,23.50
2018-04-09T22:01:38.011Z,23.40
2018-04-09T22:06:40.547Z,23.40
2018-04-09T22:11:43.102Z,23.40
2018-04-09T22:16:46.454Z,23.50
2018-04-09T22:21:49.065Z,23.40
2018-04-09T22:26:51.606Z,23.50
2018-04-09T22:31:54.140Z,23.40
2018-04-09T22:36:57.434Z,23.50
2018-04-09T22:42:00.033Z,23.40
2018-04-09T22:47:02.646Z,23.50
2018-04-09T22:52:05.177Z,23.50
2018-04-09T22:57:08.549Z,23.50
2018-04-09T23:02:11.258Z,23.40
2018-04-09T23:07:13.846Z,23.40
2018-04-09T23:12:17.268Z,23.40
2018-04-09T23:17:19.784Z,23.40
2018-04-09T23:22:34.971Z,23.40
2018-04-09T23:27:37.713Z,23.40
2018-04-09T23:32:40.329Z,23.40
2018-04-09T23:37:42.927Z,23.40
2018-04-09T23:42:45.626Z,23.40
2018-04-09T23:47:48.162Z,23.40
2018-04-09T23:52:50.707Z,23.40
2018-04-09T23:57:53.400Z,23.40
